Latest Weather Observations for Lord Howe Island

IDN60801

Issued at 7:04 am EST Tuesday 4 August 2015 (issued every 30 minutes, with the page automatically refreshed every 10 minutes)

About weather observations | Map of weather stations | Latest weather observations for NSW | Other Formats
Station Details ID: 200839 Name: LORD HOWE ISLAND AERO Lat: -31.54 Lon: 159.08 Height: 5.0 m
Data from the previous 72 hours. | See also: Recent months at Lord Howe Island
Date/Time
EST
Temp
°C
App
Temp
°C
Dew
Point
Rel
Hum
%
Delta-T
°C
Wind Press
QNH
hPa
Press
MSL
hPa
Rain
since 9 am
mm
Dir
 
Spd
km/h
Gust
km/h
Spd
kts
Gust
kts
04/06:30am 16.1 14.7 8.9 62 3.7 SE 6 17 3 9 1018.0 - 0.6
04/06:00am 16.4 13.5 8.1 58 4.2 SE 13 24 7 13 1017.8 - 0.6
04/05:30am 16.5 13.7 8.4 58 4.1 SSE 13 24 7 13 1017.3 1017.3 0.6
04/05:00am 16.4 14.1 9.0 61 3.8 S 11 20 6 11 1016.8 - 0.6
04/04:30am 16.9 12.5 8.9 59 4.1 SSW 22 35 12 19 1016.8 - 0.6
04/04:00am 17.2 14.4 8.6 57 4.4 SSW 13 35 7 19 1016.4 - 0.6
04/03:30am 17.1 12.7 7.5 53 4.8 SSW 20 32 11 17 1016.3 - 0.6
04/03:00am 17.5 13.1 8.8 56 4.5 SW 22 33 12 18 1015.5 - 0.6
04/02:30am 17.3 13.2 10.1 62 3.8 SSW 22 35 12 19 1015.5 1015.5 0.6
04/02:00am 17.4 12.8 10.9 65 3.5 SSW 26 41 14 22 1015.5 - 0.6
04/01:30am 18.0 14.3 11.6 66 3.5 SW 22 41 12 22 1015.9 - 0.6
04/01:00am 18.5 14.5 13.0 70 3.1 SW 26 37 14 20 1015.8 - 0.6
04/12:30am 18.4 14.6 13.7 74 2.7 SW 26 35 14 19 1015.3 - 0.6
04/12:11am 18.6 15.4 14.3 76 2.5 SW 24 35 13 19 1015.1 - 0.6
04/12:00am 18.7 15.7 14.9 78 2.2 SW 24 35 13 19 1014.9 - 0.6
 
Date/Time
EST
Temp
°C
App
Temp
°C
Dew
Point
Rel
Hum
%
Delta-T
°C
Wind Press
QNH
hPa
Press
MSL
hPa
Rain
since 9 am
mm
Dir
 
Spd
km/h
Gust
km/h
Spd
kts
Gust
kts
03/11:47pm 18.6 15.6 15.9 84 1.6 SW 26 39 14 21 1014.9 - 0.6
03/11:37pm 18.5 15.6 16.0 85 1.5 SW 26 37 14 20 1014.8 - 0.6
03/11:30pm 18.8 15.4 15.9 83 1.7 SW 28 39 15 21 1015.0 1015.0 0.6
03/11:24pm 19.0 16.0 16.8 87 1.3 SW 28 37 15 20 1015.1 - 0.6
03/11:14pm 19.1 16.2 17.1 88 1.2 SW 28 37 15 20 1014.8 - 0.6
03/11:11pm 19.3 15.9 17.7 90 1.0 W 32 43 17 23 1014.7 - 0.6
03/11:02pm 19.3 15.4 17.8 91 0.9 W 35 46 19 25 1014.8 - 0.4
03/11:00pm 19.6 16.0 17.6 88 1.2 W 33 46 18 25 1014.8 - 0.2
03/10:55pm 20.0 16.7 17.9 88 1.3 W 32 39 17 21 1015.0 - 0.2
03/10:34pm 19.8 16.8 17.8 88 1.2 W 30 39 16 21 1015.0 - 0.2
03/10:30pm 19.8 17.4 17.3 85 1.5 W 26 39 14 21 1015.0 - 0.2
03/10:19pm 19.8 17.5 17.7 88 1.3 W 26 39 14 21 1015.1 - 0.2
03/10:00pm 20.0 18.0 17.4 85 1.6 W 24 33 13 18 1015.1 - 0.0
03/09:30pm 20.0 18.7 17.2 84 1.7 WNW 20 33 11 18 1015.3 - 0.0
03/09:00pm 20.2 18.8 17.1 82 1.9 WNW 20 30 11 16 1015.5 - 0.0
03/08:30pm 20.0 18.4 17.4 85 1.6 W 22 33 12 18 1015.6 1015.6 0.0
03/08:00pm 20.1 19.4 17.3 84 1.7 WNW 17 28 9 15 1015.6 - 0.0
03/07:30pm 20.1 18.9 17.1 83 1.8 WNW 19 32 10 17 1015.5 - 0.0
03/07:15pm 20.2 19.4 17.1 82 1.9 WNW 17 32 9 17 1015.4 - 0.0
03/07:00pm 20.2 19.3 16.9 81 2.0 WNW 17 28 9 15 1015.4 - 0.0
03/06:41pm 20.2 19.3 16.9 81 2.0 NW 17 33 9 18 1015.4 - 0.0
03/06:30pm 20.1 19.6 16.8 81 2.0 NW 15 32 8 17 1015.3 - 0.0
03/06:00pm 20.1 18.8 16.8 81 2.0 NW 19 35 10 19 1015.2 - 0.0
03/05:30pm 20.1 19.0 16.4 79 2.2 WNW 17 32 9 17 1015.1 1015.1 0.0
03/05:00pm 20.1 19.6 16.8 81 2.0 WNW 15 32 8 17 1015.0 - 0.0
03/04:30pm 20.2 19.2 16.7 80 2.1 NW 17 33 9 18 1014.8 - 0.0
03/04:00pm 20.6 19.1 16.3 76 2.6 NW 19 32 10 17 1014.6 - 0.0
03/03:30pm 20.3 19.3 16.5 79 2.3 NNW 17 28 9 15 1014.5 - 0.0
03/03:00pm 20.4 18.7 16.2 77 2.5 NNW 20 43 11 23 1014.8 - 0.0
03/02:30pm 20.4 18.8 16.4 78 2.4 NW 20 33 11 18 1014.9 1014.9 0.0
03/02:00pm 20.9 19.3 16.4 75 2.7 NW 20 41 11 22 1015.0 - 0.0
03/01:30pm 21.0 20.0 16.5 75 2.7 NW 17 32 9 17 1015.1 - 0.0
03/01:00pm 20.6 18.4 15.9 74 2.8 NW 22 39 12 21 1015.4 - 0.0
03/12:30pm 20.7 19.3 16.6 77 2.5 NNW 19 32 10 17 1015.8 - 0.0
03/12:00pm 20.6 19.2 16.5 77 2.5 NNW 19 41 10 22 1016.4 - 0.0
03/11:30am 20.4 18.3 16.2 77 2.5 NW 22 39 12 21 1016.5 1016.5 0.0
03/11:00am 20.5 18.8 16.3 77 2.5 NW 20 41 11 22 1017.2 - 0.0
03/10:30am 20.6 19.1 16.4 77 2.5 NW 19 33 10 18 1017.8 - 0.0
03/10:00am 20.7 19.0 16.2 75 2.7 NNW 20 33 11 18 1017.9 - 0.0
03/09:30am 20.2 18.5 16.2 78 2.4 NW 20 37 11 20 1018.2 - 0.0
03/09:00am 20.1 18.9 16.1 78 2.4 NW 17 26 9 14 1018.3 - 0.0
03/08:30am 20.2 18.9 15.8 76 2.6 WNW 17 39 9 21 1018.1 1018.1 0.0
03/08:00am 20.1 19.3 16.1 78 2.4 NW 15 32 8 17 1018.0 - 0.0
03/07:30am 19.9 18.9 15.5 76 2.6 NW 15 32 8 17 1018.1 - 0.0
03/07:00am 20.0 18.7 15.8 77 2.5 NW 17 28 9 15 1017.9 - 0.0
03/06:30am 19.7 17.7 15.5 77 2.5 NNW 20 35 11 19 1017.7 - 0.0
03/06:00am 19.7 17.8 15.3 76 2.6 NNW 19 43 10 23 1017.8 - 0.0
03/05:30am 19.7 17.6 15.1 75 2.7 NW 20 41 11 22 1017.5 1017.5 0.0
03/05:18am 19.6 17.6 15.4 77 2.5 NNW 20 39 11 21 1017.5 - 0.0
03/05:00am 19.6 18.1 15.2 76 2.6 NNW 17 41 9 22 1017.6 - 0.0
03/04:30am 19.5 17.6 15.1 76 2.6 NNW 19 30 10 16 1017.5 - 0.0
03/04:00am 19.5 17.4 15.1 76 2.6 NNW 20 39 11 21 1017.8 - 0.0
03/03:39am 19.4 17.7 14.8 75 2.7 NNW 17 28 9 15 1017.8 - 0.0
03/03:30am 19.3 17.5 14.5 74 2.8 NNW 17 35 9 19 1018.0 - 0.0
03/03:00am 19.2 17.7 15.3 78 2.3 NNW 17 33 9 18 1018.1 - 0.0
03/02:30am 19.5 17.9 14.9 75 2.7 NNW 17 35 9 19 1018.3 1018.3 0.0
03/02:00am 19.4 17.3 14.6 74 2.8 NNW 19 35 10 19 1018.7 - 0.0
03/01:33am 19.5 17.9 15.1 76 2.6 NW 17 28 9 15 1019.3 - 0.0
03/01:30am 19.4 17.8 14.9 75 2.6 NW 17 28 9 15 1019.4 - 0.0
03/01:00am 19.4 18.1 14.8 75 2.7 NNW 15 32 8 17 1019.6 - 0.0
03/12:30am 19.2 17.7 14.3 73 2.8 NNW 15 28 8 15 1019.8 - 0.0
03/12:00am 19.3 17.9 14.5 74 2.8 NNW 15 28 8 15 1019.6 - 0.0
 
Date/Time
EST
Temp
°C
App
Temp
°C
Dew
Point
Rel
Hum
%
Delta-T
°C
Wind Press
QNH
hPa
Press
MSL
hPa
Rain
since 9 am
mm
Dir
 
Spd
km/h
Gust
km/h
Spd
kts
Gust
kts
02/11:30pm 19.2 18.1 14.2 73 2.9 N 13 24 7 13 1019.9 1019.9 0.0
02/11:00pm 19.3 17.4 14.1 72 3.0 NNW 17 32 9 17 1020.3 - 0.0
02/10:30pm 19.3 17.9 13.5 69 3.3 N 13 30 7 16 1020.6 - 0.0
02/10:00pm 19.2 17.9 13.8 71 3.1 N 13 24 7 13 1020.8 - 0.0
02/09:30pm 19.2 17.9 13.6 70 3.2 NNW 13 32 7 17 1021.1 - 0.0
02/09:00pm 19.4 18.0 13.4 68 3.4 NNW 13 30 7 16 1021.3 - 0.0
02/08:30pm 19.4 17.7 13.6 69 3.3 NNW 15 30 8 16 1021.4 1021.4 0.0
02/08:00pm 19.3 18.7 13.5 69 3.3 NNW 9 15 5 8 1021.6 - 0.0
02/07:30pm 19.4 18.0 13.4 68 3.4 NNW 13 28 7 15 1021.6 - 0.0
02/07:00pm 19.2 18.3 13.8 71 3.1 NNW 11 20 6 11 1021.4 - 0.0
02/06:30pm 19.3 16.9 13.7 70 3.2 WNW 19 26 10 14 1021.5 - 0.0
02/06:00pm 19.2 18.4 14.0 72 3.0 NNW 11 22 6 12 1021.3 - 0.0
02/05:30pm 19.3 17.6 13.7 70 3.2 NW 15 24 8 13 1020.9 1020.9 0.0
02/05:00pm 19.2 18.1 14.3 73 2.8 NNW 13 26 7 14 1020.5 - 0.0
02/04:30pm 19.3 18.7 14.5 74 2.8 NNW 11 22 6 12 1020.6 - 0.0
02/04:00pm 19.6 18.0 13.8 69 3.3 NW 15 24 8 13 1020.8 - 0.0
02/03:30pm 20.0 18.8 13.9 68 3.5 NNW 13 17 7 9 1020.4 - 0.0
02/03:00pm 20.4 18.5 14.2 67 3.6 NNW 17 30 9 16 1020.3 - 0.0
02/02:30pm 19.9 17.9 14.0 69 3.4 NNW 17 32 9 17 1020.3 1020.3 0.0
02/02:00pm 20.4 19.3 14.2 67 3.6 NNW 13 22 7 12 1020.6 - 0.0
02/01:30pm 20.5 19.1 13.5 64 4.0 N 13 24 7 13 1020.8 - 0.0
02/01:00pm 20.6 19.0 14.0 66 3.8 NW 15 20 8 11 1020.9 - 0.0
02/12:30pm 20.1 17.7 13.8 67 3.6 N 19 28 10 15 1021.3 - 0.0
02/12:00pm 20.5 19.2 13.7 65 3.9 NW 13 26 7 14 1021.8 - 0.0
02/11:30am 20.7 19.0 13.7 64 4.0 NW 15 32 8 17 1022.4 1022.4 0.0
02/11:00am 20.4 18.5 14.2 67 3.6 NW 17 32 9 17 1022.9 - 0.0
02/10:30am 20.5 18.7 14.5 68 3.5 WNW 17 32 9 17 1022.9 - 0.0
02/10:00am 20.5 19.0 14.1 66 3.7 NW 15 26 8 14 1023.3 - 0.0
02/09:30am 20.5 19.9 14.7 69 3.4 NW 11 22 6 12 1023.4 - 0.0
02/09:00am 19.9 18.9 14.7 72 3.0 NW 13 22 7 12 1023.4 - 0.0
02/08:30am 19.5 18.5 14.5 73 2.9 WNW 13 22 7 12 1023.3 1023.3 0.0
02/08:00am 19.8 18.9 14.8 73 2.9 WNW 13 20 7 11 1023.2 - 0.0
02/07:30am 19.2 18.0 14.1 72 2.9 NW 13 24 7 13 1023.0 - 0.0
02/07:00am 19.1 18.5 14.6 75 2.6 NW 11 24 6 13 1022.9 - 0.0
02/06:30am 18.7 17.5 14.0 74 2.7 NW 13 19 7 10 1022.5 - 0.0
02/06:00am 18.5 17.2 13.6 73 2.8 WNW 13 26 7 14 1022.4 - 0.0
02/05:30am 18.4 17.8 13.4 72 2.8 NW 9 15 5 8 1022.2 1022.2 0.0
02/05:00am 18.4 17.8 13.4 72 2.8 WNW 9 20 5 11 1021.8 - 0.0
02/04:30am 18.3 17.8 13.9 75 2.5 NW 9 17 5 9 1022.0 - 0.0
02/04:00am 18.2 16.8 13.4 73 2.7 NNW 13 22 7 12 1022.1 - 0.0
02/03:30am 18.4 16.9 13.2 71 2.9 NW 13 22 7 12 1022.2 - 0.0
02/03:00am 18.2 16.7 13.2 72 2.8 NW 13 20 7 11 1022.5 - 0.0
02/02:30am 17.9 17.2 13.1 73 2.7 NW 9 19 5 10 1022.6 1022.6 0.0
02/02:00am 17.9 16.7 12.9 72 2.8 NW 11 17 6 9 1023.0 - 0.0
02/01:30am 17.5 16.5 12.2 71 2.9 NNW 9 15 5 8 1023.2 - 0.0
02/01:00am 17.5 16.6 11.2 66 3.4 NNW 7 11 4 6 1023.4 - 0.0
02/12:30am 17.3 16.3 11.0 66 3.4 NNW 7 13 4 7 1023.5 - 0.0
02/12:00am 16.7 15.6 10.7 67 3.2 N 7 11 4 6 1023.5 - 0.0
 
Date/Time
EST
Temp
°C
App
Temp
°C
Dew
Point
Rel
Hum
%
Delta-T
°C
Wind Press
QNH
hPa
Press
MSL
hPa
Rain
since 9 am
mm
Dir
 
Spd
km/h
Gust
km/h
Spd
kts
Gust
kts
01/11:30pm 17.0 15.4 10.2 64 3.6 N 9 13 5 7 1023.7 1023.7 0.0
01/11:00pm 15.8 15.3 10.9 72 2.6 NNW 4 9 2 5 1023.8 - 0.0
01/10:30pm 16.2 15.3 10.5 69 3.0 NNW 6 7 3 4 1023.9 - 0.0
01/10:00pm 16.4 15.1 10.1 66 3.3 NNW 7 13 4 7 1024.0 - 0.0
01/09:30pm 15.9 14.5 9.7 66 3.2 NNW 7 13 4 7 1024.1 - 0.0
01/09:00pm 14.5 14.4 9.6 72 2.5 CALM 0 0 0 0 1023.9 - 0.0
01/08:30pm 13.9 14.0 10.0 77 2.0 CALM 0 0 0 0 1023.8 1023.8 0.0
01/08:00pm 14.6 14.7 10.0 74 2.4 CALM 0 4 0 2 1023.7 - 0.0
01/07:30pm 15.3 14.6 10.1 71 2.7 N 4 7 2 4 1023.4 - 0.0
01/07:00pm 15.7 14.5 9.5 66 3.2 WNW 6 9 3 5 1023.0 - 0.0
01/06:30pm 14.8 14.9 10.2 74 2.4 CALM 0 2 0 1 1022.5 - 0.0
01/06:00pm 15.3 14.9 9.9 70 2.8 NNW 2 7 1 4 1022.1 - 0.0
01/05:30pm 15.7 15.0 10.2 70 2.9 NW 4 7 2 4 1021.9 1021.9 0.0
01/05:00pm 16.0 15.1 10.5 70 2.9 NNW 6 9 3 5 1021.6 - 0.0
01/04:30pm 17.6 15.6 10.2 62 3.9 W 11 17 6 9 1021.4 - 0.0
01/04:00pm 19.1 17.6 10.5 57 4.6 WNW 9 13 5 7 1021.2 - 0.0
01/03:30pm 19.4 16.2 9.8 53 5.1 W 17 22 9 12 1021.4 - 0.0
01/03:00pm 19.5 16.0 10.8 57 4.7 W 20 26 11 14 1021.4 - 0.0
01/02:30pm 19.6 16.4 11.8 60 4.3 W 20 24 11 13 1021.5 1021.5 0.0
01/02:00pm 20.1 17.5 12.0 59 4.5 W 17 22 9 12 1021.6 - 0.0
01/01:30pm 19.2 17.3 11.7 62 4.1 W 13 19 7 10 1021.4 - 0.0
01/01:00pm 20.3 18.5 10.9 54 5.1 WNW 11 19 6 10 1021.6 - 0.0
01/12:30pm 20.0 18.9 11.9 59 4.5 N 9 17 5 9 1021.7 - 0.0
01/12:00pm 20.1 18.6 12.0 59 4.5 N 11 15 6 8 1022.0 - 0.0
01/11:30am 20.0 18.9 12.1 60 4.4 W 9 13 5 7 1022.5 1022.5 0.0
01/11:00am 19.8 18.8 12.3 62 4.2 WSW 9 13 5 7 1023.0 - 0.0
01/10:30am 20.1 18.9 11.6 58 4.7 NE 9 11 5 6 1023.4 - 0.0
01/10:00am 19.8 19.5 11.6 59 4.5 WNW 4 9 2 5 1023.5 - 0.0
01/09:30am 19.2 18.3 11.5 61 4.2 WSW 7 9 4 5 1023.6 - 0.0
01/09:00am 18.2 17.8 12.4 69 3.2 WSW 6 7 3 4 1023.6 - 0.0
01/08:30am 17.5 18.3 12.4 72 2.8 CALM 0 0 0 0 1023.6 1023.6 3.2
01/08:00am 16.5 17.8 14.0 85 1.4 CALM 0 0 0 0 1023.4 - 3.2
01/07:30am 15.2 16.3 13.6 90 0.9 CALM 0 0 0 0 1023.0 - 3.2
01/07:00am 13.0 13.6 11.9 93 0.6 CALM 0 0 0 0 1022.6 - 3.2

Other Formats:

Comma delimited format used in spreadsheet applications
http://www.bom.gov.au/fwo/IDN60801/IDN60801.94995.axf

JavaScript Object Notation format (JSON) in row-major order
http://www.bom.gov.au/fwo/IDN60801/IDN60801.94995.json